Archival Weather

Yakutsk

Yakutsk, Russia (UEEE)

Report from: Monday, February 6, 2023 4:00 AM JST
Current time: Tuesday, December 12, 2023 12:02 AM JST

Current weather – Weather history – Daily summaries
Weather forecast

Present weatherLight snow, mist
Temperature-41.0°C (-41.8°F)
Dew point-45.0°C (-49.0°F)
Winds 1.9 kts (1 m/s, 2.2 mph) Northwest (310°)
Visibility1.5 mi. (2.4 km)
Altimeter30.18 in.Hg (1022 mB)
Precip. events QF 6:38 AM
Relative humidity65 %
Density altitude-7,863 ft. (-2,397 m)
Remarks No significant changes expected in the next two hours
Flight conditions Instrument Meteorological Conditions
Raw dataUEEE 051900Z 31001MPS 2400 -SN BR NSC M41/M45 Q1022 R23L/490150 NOSIG RMK QFE758
An error has occurred. This application may no longer respond until reloaded. Reload 🗙